createdAt,value
2022-12-08T00:01:28.719Z,9.75
2022-12-08T00:03:56.442Z,9.32
2022-12-08T00:06:46.728Z,9.88
2022-12-08T00:09:22.129Z,10.02
2022-12-08T00:12:10.795Z,9.32
2022-12-08T00:14:39.828Z,9.60
2022-12-08T00:17:08.141Z,9.70
2022-12-08T00:19:34.922Z,9.20
2022-12-08T00:22:01.943Z,9.50
2022-12-08T00:24:35.154Z,9.55
2022-12-08T00:27:02.988Z,9.25
2022-12-08T00:29:29.667Z,9.32
2022-12-08T00:31:56.455Z,10.55
2022-12-08T00:34:23.233Z,9.80
2022-12-08T00:36:49.844Z,10.57
2022-12-08T00:39:17.721Z,9.82
2022-12-08T00:42:03.135Z,9.10
2022-12-08T00:44:29.876Z,9.10
2022-12-08T00:46:56.823Z,9.55
2022-12-08T00:49:24.070Z,8.43
2022-12-08T00:51:50.894Z,9.50
2022-12-08T00:54:18.290Z,8.82
2022-12-08T00:56:45.025Z,8.35
2022-12-08T00:59:12.136Z,8.13
2022-12-08T01:01:38.746Z,9.20
2022-12-08T01:04:12.205Z,8.50
2022-12-08T01:06:39.437Z,9.85
2022-12-08T01:09:07.656Z,9.10
2022-12-08T01:11:35.113Z,9.75
2022-12-08T01:14:01.828Z,9.43
2022-12-08T01:16:31.111Z,9.80
2022-12-08T01:18:59.153Z,8.77
2022-12-08T01:21:26.056Z,8.55
2022-12-08T01:23:52.650Z,9.57
2022-12-08T01:26:22.203Z,9.10
2022-12-08T01:28:48.840Z,8.77
2022-12-08T01:31:18.239Z,8.70
2022-12-08T01:33:45.247Z,9.55
2022-12-08T01:36:32.844Z,8.65
2022-12-08T01:39:01.333Z,8.55
2022-12-08T01:41:31.285Z,7.97
2022-12-08T01:44:24.683Z,8.63
2022-12-08T01:46:53.582Z,8.45
2022-12-08T01:49:33.108Z,9.13
2022-12-08T01:52:23.406Z,7.75
2022-12-08T01:54:56.243Z,8.43
2022-12-08T01:57:31.005Z,8.88
2022-12-08T02:00:09.901Z,8.13
2022-12-08T02:03:00.384Z,7.97
2022-12-08T02:05:33.560Z,7.63
2022-12-08T02:08:04.470Z,7.38
2022-12-08T02:10:34.711Z,7.47
2022-12-08T02:13:02.923Z,7.70
2022-12-08T02:15:38.785Z,7.57
2022-12-08T02:18:17.576Z,7.85
2022-12-08T02:21:02.292Z,7.95
2022-12-08T02:23:50.573Z,8.07
2022-12-08T02:26:45.567Z,9.05
2022-12-08T02:29:44.211Z,8.45
2022-12-08T02:32:35.636Z,8.75
2022-12-08T02:35:17.919Z,8.05
2022-12-08T02:37:55.185Z,6.63
2022-12-08T02:40:29.120Z,6.95
2022-12-08T02:43:18.111Z,6.50
2022-12-08T02:45:51.767Z,6.85
2022-12-08T02:48:18.355Z,7.18
2022-12-08T02:50:44.983Z,7.05
2022-12-08T02:55:43.212Z,6.55
2022-12-08T02:58:28.349Z,7.40
2022-12-08T03:01:13.032Z,8.00
2022-12-08T03:03:45.781Z,7.28
2022-12-08T03:06:35.097Z,7.78
2022-12-08T03:09:18.828Z,7.30
2022-12-08T03:11:56.081Z,7.35
2022-12-08T03:14:22.926Z,7.70
2022-12-08T03:16:55.183Z,8.02
2022-12-08T03:19:26.432Z,7.85
2022-12-08T03:22:02.717Z,7.47
2022-12-08T03:24:36.358Z,8.00
2022-12-08T03:27:13.703Z,8.15
2022-12-08T03:29:41.025Z,8.05
2022-12-08T03:32:35.550Z,7.70
2022-12-08T03:35:06.680Z,7.10
2022-12-08T03:37:36.039Z,8.18
2022-12-08T03:40:04.964Z,8.75
2022-12-08T03:42:31.773Z,7.82
2022-12-08T03:44:58.292Z,7.95
2022-12-08T03:47:24.865Z,6.93
2022-12-08T03:49:51.452Z,7.43
2022-12-08T03:52:17.963Z,8.13
2022-12-08T03:54:44.530Z,7.32
2022-12-08T03:57:11.186Z,8.43
2022-12-08T03:59:37.726Z,8.00
2022-12-08T04:02:04.357Z,8.13
2022-12-08T04:04:31.304Z,8.27
2022-12-08T04:06:57.945Z,8.30
2022-12-08T04:09:24.639Z,8.27
2022-12-08T04:11:51.242Z,7.88
2022-12-08T04:14:17.732Z,9.10
2022-12-08T04:16:44.284Z,8.00
2022-12-08T04:19:10.881Z,7.90
2022-12-08T04:21:37.387Z,8.10
2022-12-08T04:24:04.048Z,8.63
2022-12-08T04:26:30.735Z,8.13
2022-12-08T04:28:57.228Z,8.77
2022-12-08T04:31:23.941Z,7.90
2022-12-08T04:33:50.648Z,7.05
2022-12-08T04:36:17.177Z,8.32
2022-12-08T04:38:43.748Z,7.72
2022-12-08T04:41:10.522Z,8.45
2022-12-08T04:43:37.244Z,8.88
2022-12-08T04:46:07.397Z,8.75
2022-12-08T04:48:35.104Z,7.78
2022-12-08T04:51:01.628Z,7.50
2022-12-08T04:53:28.189Z,8.25
2022-12-08T04:55:55.012Z,8.20
2022-12-08T04:58:21.875Z,7.30
2022-12-08T05:00:48.937Z,8.13
2022-12-08T05:03:16.137Z,7.82
2022-12-08T05:05:43.061Z,8.40
2022-12-08T05:08:10.488Z,8.25
2022-12-08T05:10:37.350Z,8.02
2022-12-08T05:13:03.877Z,9.27
2022-12-08T05:15:30.517Z,8.50
2022-12-08T05:17:57.117Z,8.65
2022-12-08T05:20:23.779Z,7.60
2022-12-08T05:22:50.538Z,9.25
2022-12-08T05:25:17.355Z,8.63
2022-12-08T05:27:43.978Z,9.18
2022-12-08T05:30:10.717Z,8.30
2022-12-08T05:32:37.407Z,8.77
2022-12-08T05:35:04.041Z,8.73
2022-12-08T05:37:30.587Z,7.72
2022-12-08T05:39:57.184Z,8.55
2022-12-08T05:42:25.075Z,7.97
2022-12-08T05:44:52.311Z,7.85
2022-12-08T05:47:19.036Z,8.15
2022-12-08T05:49:47.002Z,8.73
2022-12-08T05:52:13.585Z,8.50
2022-12-08T05:54:40.255Z,8.45
2022-12-08T05:57:06.890Z,8.77
2022-12-08T05:59:33.457Z,8.75
2022-12-08T06:02:00.219Z,9.23
2022-12-08T06:04:26.932Z,9.43
2022-12-08T06:06:53.654Z,9.75
2022-12-08T06:09:20.212Z,10.15
2022-12-08T06:11:47.282Z,9.65
2022-12-08T06:14:14.110Z,8.70
2022-12-08T06:16:40.806Z,10.07
2022-12-08T06:19:07.459Z,9.13
2022-12-08T06:21:34.105Z,9.60
2022-12-08T06:24:00.915Z,9.40
2022-12-08T06:26:27.728Z,9.85
2022-12-08T06:28:54.755Z,10.00
2022-12-08T06:31:23.824Z,10.45
2022-12-08T06:33:51.104Z,10.52
2022-12-08T06:36:19.673Z,10.25
2022-12-08T06:38:46.633Z,11.02
2022-12-08T06:41:13.391Z,10.90
2022-12-08T06:43:41.158Z,10.93
2022-12-08T06:46:10.571Z,11.00
2022-12-08T06:48:37.167Z,10.65
2022-12-08T06:51:17.241Z,10.98
2022-12-08T06:53:44.571Z,11.85
2022-12-08T06:56:11.672Z,11.60
2022-12-08T06:58:38.970Z,10.65
2022-12-08T07:01:07.693Z,11.68
2022-12-08T07:03:34.766Z,12.15
2022-12-08T07:06:04.041Z,11.48
2022-12-08T07:08:32.063Z,10.75
2022-12-08T07:10:58.842Z,10.05
2022-12-08T07:13:25.465Z,10.52
2022-12-08T07:15:52.212Z,10.20
2022-12-08T07:18:18.799Z,9.68
2022-12-08T07:20:45.429Z,9.98
2022-12-08T07:23:11.963Z,9.35
2022-12-08T07:25:38.623Z,9.68
2022-12-08T07:28:11.801Z,9.48
2022-12-08T07:30:39.249Z,9.35
2022-12-08T07:33:06.689Z,9.38
2022-12-08T07:35:35.015Z,9.68
2022-12-08T07:38:01.940Z,10.25
2022-12-08T07:40:28.804Z,10.57
2022-12-08T07:42:57.255Z,10.88
2022-12-08T07:45:29.862Z,11.10
2022-12-08T07:47:58.173Z,11.65
2022-12-08T07:50:24.823Z,11.23
2022-12-08T07:52:51.318Z,11.40
2022-12-08T07:55:18.150Z,10.63
2022-12-08T07:57:44.714Z,11.60
2022-12-08T08:00:11.780Z,11.32
2022-12-08T08:02:38.549Z,10.40
2022-12-08T08:05:06.325Z,11.52
2022-12-08T08:07:33.051Z,11.63
2022-12-08T08:09:59.710Z,11.57
2022-12-08T08:12:33.624Z,13.18
2022-12-08T08:15:01.528Z,11.75
2022-12-08T08:17:29.262Z,12.32
2022-12-08T08:19:56.400Z,11.60
2022-12-08T08:22:23.076Z,12.57
2022-12-08T08:24:49.699Z,12.98
2022-12-08T08:27:16.287Z,12.52
2022-12-08T08:29:42.851Z,11.80
2022-12-08T08:32:09.511Z,11.90
2022-12-08T08:34:36.135Z,12.10
2022-12-08T08:37:02.787Z,12.65
2022-12-08T08:39:30.395Z,11.52
2022-12-08T08:41:56.939Z,11.40
2022-12-08T08:44:23.681Z,12.70
2022-12-08T08:46:50.314Z,12.55
2022-12-08T08:49:17.023Z,12.60
2022-12-08T08:51:43.924Z,11.77
2022-12-08T08:54:10.679Z,13.70
2022-12-08T08:56:37.168Z,12.10
2022-12-08T08:59:03.901Z,11.85
2022-12-08T09:01:30.937Z,14.25
2022-12-08T09:03:58.101Z,12.73
2022-12-08T09:06:25.288Z,13.65
2022-12-08T09:08:52.264Z,11.95
2022-12-08T09:11:18.903Z,11.57
2022-12-08T09:13:49.473Z,11.38
2022-12-08T09:16:16.768Z,11.20
2022-12-08T09:18:43.381Z,11.05
2022-12-08T09:21:16.590Z,12.77
2022-12-08T09:23:43.722Z,12.10
2022-12-08T09:26:10.382Z,10.85
2022-12-08T09:28:37.089Z,12.15
2022-12-08T09:31:04.119Z,10.82
2022-12-08T09:33:30.826Z,12.05
2022-12-08T09:36:02.242Z,11.73
2022-12-08T09:40:55.372Z,10.57
2022-12-08T09:43:51.764Z,12.48
2022-12-08T09:46:19.724Z,12.32
2022-12-08T09:48:56.142Z,11.60
2022-12-08T09:51:38.998Z,10.95
2022-12-08T09:54:24.274Z,12.15
2022-12-08T09:56:55.018Z,11.38
2022-12-08T09:59:30.660Z,11.82
2022-12-08T10:01:57.475Z,12.55
2022-12-08T10:04:28.827Z,12.52
2022-12-08T10:09:45.629Z,11.05
2022-12-08T10:12:20.899Z,11.20
2022-12-08T10:14:57.187Z,12.82
2022-12-08T10:17:31.889Z,12.25
2022-12-08T10:20:04.259Z,12.65
2022-12-08T10:22:38.678Z,12.18
2022-12-08T10:25:06.683Z,11.02
2022-12-08T10:27:36.698Z,12.10
2022-12-08T10:30:12.092Z,11.50
2022-12-08T10:32:41.285Z,12.88
2022-12-08T10:35:12.062Z,13.27
2022-12-08T10:37:39.160Z,12.15
2022-12-08T10:40:09.016Z,12.45
2022-12-08T10:42:39.691Z,11.40
2022-12-08T10:45:09.140Z,11.70
2022-12-08T10:47:40.757Z,11.60
2022-12-08T10:50:19.434Z,12.18
2022-12-08T10:52:54.261Z,12.23
2022-12-08T10:55:21.760Z,12.52
2022-12-08T10:57:51.454Z,13.57
2022-12-08T11:00:21.964Z,13.50
2022-12-08T11:03:00.585Z,12.10
2022-12-08T11:05:35.730Z,12.93
2022-12-08T11:08:03.995Z,13.38
2022-12-08T11:10:44.700Z,13.38
2022-12-08T11:13:26.382Z,13.10
2022-12-08T11:15:57.018Z,13.80
2022-12-08T11:18:29.873Z,13.23
2022-12-08T11:21:07.637Z,12.98
2022-12-08T11:23:36.616Z,13.93
2022-12-08T11:26:11.858Z,13.23
2022-12-08T11:28:39.278Z,12.20
2022-12-08T11:31:25.480Z,13.85
2022-12-08T11:33:52.951Z,13.18
2022-12-08T11:36:23.063Z,13.18
2022-12-08T11:38:55.256Z,12.93
2022-12-08T11:41:27.166Z,12.73
2022-12-08T11:44:22.243Z,11.98
2022-12-08T11:47:20.503Z,14.07
2022-12-08T11:49:49.063Z,14.18
2022-12-08T11:52:27.862Z,14.15
2022-12-08T11:55:13.976Z,12.60
2022-12-08T11:57:40.675Z,13.02
2022-12-08T12:00:13.406Z,14.02
2022-12-08T12:02:44.963Z,15.07
2022-12-08T12:05:39.923Z,13.98
2022-12-08T12:08:50.368Z,13.40
2022-12-08T12:12:00.383Z,14.20
2022-12-08T12:14:32.708Z,14.13
2022-12-08T12:17:05.425Z,14.60
2022-12-08T12:19:39.625Z,14.15
2022-12-08T12:22:17.804Z,14.27
2022-12-08T12:24:47.547Z,14.27
2022-12-08T12:27:14.109Z,14.48
2022-12-08T12:30:00.722Z,14.45
2022-12-08T12:32:41.411Z,15.38
2022-12-08T12:35:29.294Z,15.55
2022-12-08T12:38:00.083Z,14.02
2022-12-08T12:40:29.123Z,15.02
2022-12-08T12:42:55.725Z,14.80
2022-12-08T12:45:22.203Z,14.52
2022-12-08T12:48:00.503Z,14.90
2022-12-08T12:50:39.029Z,14.20
2022-12-08T12:53:20.798Z,15.00
2022-12-08T12:56:03.990Z,14.10
2022-12-08T12:58:30.615Z,14.68
2022-12-08T13:01:17.001Z,14.15
2022-12-08T13:03:47.558Z,15.27
2022-12-08T13:06:21.569Z,14.40
2022-12-08T13:08:53.559Z,14.10
2022-12-08T13:11:21.539Z,15.18
2022-12-08T13:14:06.477Z,14.52
2022-12-08T13:16:39.462Z,14.38
2022-12-08T13:19:14.968Z,14.98
2022-12-08T13:21:42.052Z,14.35
2022-12-08T13:24:17.187Z,14.82
2022-12-08T13:26:45.787Z,14.25
2022-12-08T13:29:22.051Z,14.30
2022-12-08T13:31:55.617Z,13.75
2022-12-08T13:34:42.352Z,15.85
2022-12-08T13:37:11.687Z,14.50
2022-12-08T13:39:41.039Z,14.45
2022-12-08T13:42:19.367Z,14.27
2022-12-08T13:57:07.128Z,14.30
2022-12-08T13:59:44.749Z,14.07
2022-12-08T14:02:18.059Z,14.23
2022-12-08T14:05:16.994Z,14.63
2022-12-08T14:07:34.356Z,14.77
2022-12-08T14:10:03.767Z,14.90
2022-12-08T14:12:31.568Z,14.60
2022-12-08T14:15:03.734Z,13.98
2022-12-08T14:17:31.443Z,15.05
2022-12-08T14:19:59.183Z,14.93
2022-12-08T14:22:33.995Z,16.13
2022-12-08T14:25:00.830Z,14.90
2022-12-08T14:27:36.167Z,14.70
2022-12-08T14:30:15.565Z,14.43
2022-12-08T14:32:48.206Z,15.63
2022-12-08T14:35:29.999Z,15.45
2022-12-08T14:38:02.661Z,14.55
2022-12-08T14:40:35.722Z,15.57
2022-12-08T14:43:12.570Z,14.10
2022-12-08T14:45:39.126Z,14.73
2022-12-08T14:48:26.033Z,15.50
2022-12-08T14:51:20.301Z,14.63
2022-12-08T14:53:56.398Z,14.57
2022-12-08T14:56:24.820Z,15.00
2022-12-08T14:59:14.791Z,13.90
2022-12-08T15:04:17.405Z,13.63
2022-12-08T15:06:56.355Z,14.27
2022-12-08T15:09:35.157Z,15.00
2022-12-08T15:12:26.634Z,15.23
2022-12-08T15:14:55.348Z,14.85
2022-12-08T15:17:35.936Z,14.55
2022-12-08T15:20:04.630Z,14.75
2022-12-08T15:22:31.761Z,15.23
2022-12-08T15:24:58.583Z,15.70
2022-12-08T15:27:26.181Z,14.77
2022-12-08T15:29:53.334Z,15.07
2022-12-08T15:32:22.397Z,14.98
2022-12-08T15:34:49.466Z,15.73
2022-12-08T15:37:22.176Z,15.60
2022-12-08T15:39:49.449Z,15.18
2022-12-08T15:42:16.505Z,16.38
2022-12-08T15:44:43.846Z,15.02
2022-12-08T15:47:16.324Z,16.20
2022-12-08T15:49:43.045Z,14.77
2022-12-08T15:52:38.963Z,13.50
2022-12-08T15:55:06.045Z,15.48
2022-12-08T16:09:12.485Z,15.70
2022-12-08T16:12:08.240Z,15.07
2022-12-08T16:17:22.740Z,16.17
2022-12-08T16:19:49.301Z,17.15
2022-12-08T16:25:23.354Z,15.80
2022-12-08T16:28:36.925Z,16.58
2022-12-08T16:30:40.242Z,15.15
2022-12-08T16:33:07.117Z,16.20
2022-12-08T16:35:33.672Z,15.80
2022-12-08T16:38:00.478Z,16.52
2022-12-08T16:40:26.991Z,15.23
2022-12-08T16:42:53.570Z,17.15
2022-12-08T16:45:29.155Z,16.50
2022-12-08T16:47:58.293Z,16.95
2022-12-08T16:50:30.547Z,16.33
2022-12-08T16:52:59.189Z,16.77
2022-12-08T16:55:25.947Z,17.27
2022-12-08T16:57:53.211Z,17.27
2022-12-08T17:00:24.831Z,16.67
2022-12-08T17:02:52.208Z,16.25
2022-12-08T17:05:21.014Z,17.75
2022-12-08T17:07:50.177Z,19.55
2022-12-08T17:10:23.282Z,19.30
2022-12-08T17:12:50.339Z,16.58
2022-12-08T17:15:19.635Z,18.48
2022-12-08T17:17:47.476Z,19.20
2022-12-08T17:20:28.214Z,18.13
2022-12-08T17:22:56.293Z,16.45
2022-12-08T17:25:22.909Z,15.88
2022-12-08T17:27:49.475Z,17.38
2022-12-08T17:30:17.794Z,17.42
2022-12-08T17:32:44.582Z,18.63
2022-12-08T17:35:11.406Z,17.30
2022-12-08T17:37:38.238Z,17.48
2022-12-08T17:40:08.163Z,17.83
2022-12-08T17:42:34.957Z,17.50
2022-12-08T17:45:01.717Z,17.33
2022-12-08T17:47:28.244Z,17.38
2022-12-08T17:49:56.114Z,17.13
2022-12-08T17:52:22.942Z,16.80
2022-12-08T17:54:49.463Z,16.15
2022-12-08T17:57:15.962Z,18.67
2022-12-08T17:59:42.719Z,17.65
2022-12-08T18:02:10.878Z,17.30
2022-12-08T18:04:37.718Z,17.38
2022-12-08T18:07:04.447Z,17.67
2022-12-08T18:09:31.491Z,16.67
2022-12-08T18:11:58.180Z,17.02
2022-12-08T18:14:25.188Z,18.25
2022-12-08T18:16:53.366Z,18.10
2022-12-08T18:19:19.931Z,18.10
2022-12-08T18:21:46.547Z,18.10
2022-12-08T18:24:20.933Z,18.40
2022-12-08T18:26:48.078Z,17.05
2022-12-08T18:29:14.739Z,17.83
2022-12-08T18:31:41.239Z,17.50
2022-12-08T18:34:08.111Z,17.88
2022-12-08T18:36:34.831Z,16.05
2022-12-08T18:39:04.585Z,17.92
2022-12-08T18:41:35.557Z,17.90
2022-12-08T18:44:02.056Z,17.60
2022-12-08T18:46:28.693Z,18.20
2022-12-08T18:48:55.613Z,17.98
2022-12-08T18:51:23.708Z,17.42
2022-12-08T18:53:51.297Z,18.45
2022-12-08T18:56:22.328Z,16.00
2022-12-08T18:58:48.880Z,17.45
2022-12-08T19:01:15.653Z,16.25
2022-12-08T19:03:48.928Z,17.20
2022-12-08T19:06:30.047Z,17.02
2022-12-08T19:08:56.939Z,17.33
2022-12-08T19:11:26.137Z,16.60
2022-12-08T19:13:53.974Z,16.25
2022-12-08T19:16:21.524Z,16.27
2022-12-08T19:18:48.078Z,15.55
2022-12-08T19:21:14.688Z,16.63
2022-12-08T19:23:42.176Z,17.38
2022-12-08T19:26:08.898Z,17.48
2022-12-08T19:28:35.540Z,17.10
2022-12-08T19:31:10.130Z,17.13
2022-12-08T19:33:37.742Z,17.40
2022-12-08T19:36:10.670Z,17.50
2022-12-08T19:38:55.862Z,18.42
2022-12-08T19:41:41.642Z,17.95
2022-12-08T19:44:42.079Z,17.60
2022-12-08T19:47:09.317Z,19.15
2022-12-08T19:49:36.039Z,19.20
2022-12-08T19:52:02.680Z,17.83
2022-12-08T19:54:29.510Z,21.63
2022-12-08T19:56:56.305Z,18.73
2022-12-08T19:59:26.400Z,18.67
2022-12-08T20:01:55.973Z,19.25
2022-12-08T20:04:24.146Z,19.13
2022-12-08T20:06:52.604Z,17.10
2022-12-08T20:09:20.361Z,18.42
2022-12-08T20:11:46.963Z,18.02
2022-12-08T20:14:13.643Z,20.70
2022-12-08T20:16:41.917Z,18.05
2022-12-08T20:19:09.451Z,19.05
2022-12-08T20:21:36.045Z,18.75
2022-12-08T20:24:02.713Z,17.42
2022-12-08T20:26:29.276Z,19.20
2022-12-08T20:28:55.935Z,17.90
2022-12-08T20:31:28.350Z,18.35
2022-12-08T20:33:55.511Z,19.73
2022-12-08T20:36:22.485Z,20.48
2022-12-08T20:38:51.016Z,19.67
2022-12-08T20:41:18.552Z,20.67
2022-12-08T20:43:46.458Z,17.80
2022-12-08T20:46:15.517Z,18.38
2022-12-08T20:48:42.944Z,18.27
2022-12-08T20:51:13.103Z,18.60
2022-12-08T20:53:39.759Z,18.20
2022-12-08T20:56:06.724Z,18.52
2022-12-08T20:58:33.294Z,19.60
2022-12-08T21:00:59.934Z,19.10
2022-12-08T21:03:26.860Z,18.52
2022-12-08T21:05:53.865Z,20.13
2022-12-08T21:08:20.886Z,19.88
2022-12-08T21:10:53.871Z,19.73
2022-12-08T21:13:21.233Z,19.25
2022-12-08T21:15:48.092Z,18.77
2022-12-08T21:18:16.338Z,20.00
2022-12-08T21:20:44.071Z,19.75
2022-12-08T21:23:11.426Z,19.23
2022-12-08T21:25:42.690Z,20.88
2022-12-08T21:28:09.940Z,18.05
2022-12-08T21:30:38.851Z,19.50
2022-12-08T21:33:05.781Z,19.60
2022-12-08T21:35:32.460Z,20.52
2022-12-08T21:37:59.576Z,21.98
2022-12-08T21:40:26.126Z,22.55
2022-12-08T21:42:53.107Z,21.60
2022-12-08T21:45:20.877Z,21.08
2022-12-08T21:47:48.865Z,20.27
2022-12-08T21:50:16.541Z,21.65
2022-12-08T21:52:45.843Z,20.85
2022-12-08T21:55:14.352Z,20.17
2022-12-08T21:57:41.488Z,20.60
2022-12-08T22:00:10.953Z,20.83
2022-12-08T22:02:38.003Z,20.00
2022-12-08T22:05:05.345Z,20.15
2022-12-08T22:07:32.013Z,19.92
2022-12-08T22:09:58.782Z,19.27
2022-12-08T22:12:25.460Z,21.40
2022-12-08T22:14:52.406Z,20.67
2022-12-08T22:17:19.741Z,19.35
2022-12-08T22:19:46.527Z,21.17
2022-12-08T22:22:13.259Z,20.95
2022-12-08T22:24:39.889Z,19.70
2022-12-08T22:27:06.720Z,21.35
2022-12-08T22:29:33.515Z,21.55
2022-12-08T22:32:00.224Z,23.30
2022-12-08T22:34:27.314Z,20.73
2022-12-08T22:36:54.293Z,19.23
2022-12-08T22:39:21.111Z,20.38
2022-12-08T22:41:47.972Z,20.98
2022-12-08T22:44:15.843Z,21.17
2022-12-08T22:46:42.787Z,21.92
2022-12-08T22:49:09.562Z,21.38
2022-12-08T22:51:37.369Z,19.42
2022-12-08T22:54:04.449Z,20.25
2022-12-08T22:56:31.129Z,20.75
2022-12-08T22:58:58.513Z,18.95
2022-12-08T23:01:29.566Z,20.75
2022-12-08T23:03:57.521Z,21.08
2022-12-08T23:06:25.790Z,20.90
2022-12-08T23:08:53.217Z,19.75
2022-12-08T23:11:20.699Z,21.50
2022-12-08T23:13:47.617Z,21.38
2022-12-08T23:16:14.552Z,21.88
2022-12-08T23:18:43.231Z,20.25
2022-12-08T23:21:17.190Z,21.45
2022-12-08T23:23:44.208Z,20.63
2022-12-08T23:26:27.339Z,21.40
2022-12-08T23:28:54.518Z,22.05
2022-12-08T23:31:21.494Z,21.75
2022-12-08T23:33:48.657Z,21.75
2022-12-08T23:36:16.687Z,22.38
2022-12-08T23:38:43.756Z,22.30
2022-12-08T23:41:13.063Z,23.13
2022-12-08T23:43:47.295Z,21.90
2022-12-08T23:46:16.013Z,22.98
2022-12-08T23:48:42.878Z,21.63
2022-12-08T23:51:09.740Z,23.33
2022-12-08T23:53:36.427Z,22.33
2022-12-08T23:56:06.200Z,20.42
2022-12-08T23:58:33.946Z,18.92
